Flight Track Log - Related Links

Times and Time Zones

All times are in EDT time to prevent confusion due to time zone crossing. See the SKW5564 flight status page for this flight to view local times or setup timezone preferences in your user account.

Time Position Orientation Groundspeed Altitude Reporting Facility
EDT Latitude Longitude Course Direction KTS MPH feet Rate Location/Type
Sat 02:36:43 PM 36.0756 -115.1658 270° West 162 186 2,900  Level Los Center
Sat 02:37:20 PM 36.0750 -115.2031 269° West 184 212 3,800 1,976 Climbing Los Center
Sat 02:38:05 PM 36.0611 -115.2572 252° West 225 259 5,600 2,164 Climbing Los Center
Sat 02:38:21 PM 36.0444 -115.2717 215° Southwest 256 295 6,000 2,226 Climbing Los Center
Sat 02:39:00 PM 35.9165 -115.3816 204° Southwest  Level FlightAware
Sat 02:39:07 PM 35.9914 -115.2906 196° South 258 297 7,900  Level Los Center
Sat 02:40:00 PM 35.8834 -115.4869 270° West  Level FlightAware
Sat 02:40:09 PM 35.9375 -115.3544 224° Southwest 269 310 11,000  Level Los Center
Sat 02:41:00 PM 35.8833 -115.6188 270° West  Level FlightAware
Sat 02:41:11 PM 35.9283 -115.4564 264° West 288 331 13,200  Level Los Center
Sat 02:42:13 PM 35.9222 -115.5719 266° West 304 350 15,700 2,565 Climbing Los Center
Sat 02:43:15 PM 35.9142 -115.6808 265° West 317 365 18,500 2,129 Climbing Los Center
Sat 02:44:17 PM 35.9089 -115.7706 266° West 313 360 20,100 1,971 Climbing Los Center
Sat 02:45:32 PM 35.9847 -115.8958 307° West 313 360 23,000 2,190 Climbing Los Center
Sat 02:46:34 PM 36.0386 -115.9744 310° West 316 364 25,100 1,742 Climbing Los Center
Sat 02:47:36 PM 36.0964 -116.0567 311° West 315 362 26,600 1,403 Climbing Los Center
Sat 02:48:38 PM 36.1553 -116.1428 310° West 325 374 28,000 1,355 Climbing Los Center
Sat 02:49:40 PM 36.2233 -116.2422 310° West 338 389 29,400 1,147 Climbing Los Center
Sat 02:50:54 PM 36.2847 -116.3328 310° West 344 396 30,600 1,182 Climbing Los Center
Sat 02:51:57 PM 36.3594 -116.4428 310° West 348 400 32,100 1,440 Climbing Los Center
Sat 02:52:59 PM 36.4206 -116.5342 310° West 346 398 33,600 1,306 Climbing Los Center
Sat 02:54:01 PM 36.4936 -116.6383 311° West 338 389 34,800 1,016 Climbing Los Center
Sat 02:55:03 PM 36.5489 -116.7231 309° West 342 394 35,700 581 Climbing Los Center
Sat 02:56:05 PM 36.6272 -116.7953 324° Northwest 354 407 36,000 145 Climbing Los Center
Sat 02:57:07 PM 36.7333 -116.8769 328° Northwest 370 426 36,000  Level Los Center
Sat 02:58:09 PM 36.8244 -116.9450 329° Northwest 378 435 36,000  Level Los Center
Sat 02:59:11 PM 36.9108 -117.0142 327° Northwest 371 427 36,000  Level Los Center
Sat 02:59:27 PM 36.9286 -117.0256 333° Northwest 369 425 36,000  Level Oakland Center
Sat 03:00:29 PM 37.0167 -117.0939 328° Northwest 371 427 36,000  Level Oakland Center
Sat 03:01:30 PM 37.1044 -117.1611 329° Northwest 370 426 36,000  Level Oakland Center
Sat 03:02:31 PM 37.1878 -117.2717 313° West 370 426 36,000  Level Oakland Center
Sat 03:03:32 PM 37.2117 -117.4003 283° West 377 434 36,000  Level Oakland Center
Sat 03:04:34 PM 37.2292 -117.5314 280° West 380 437 36,000  Level Oakland Center
Sat 03:05:35 PM 37.2461 -117.6608 279° West 378 435 36,000  Level Oakland Center
Sat 03:06:37 PM 37.2619 -117.7889 279° West 373 429 36,000  Level Oakland Center
Sat 03:07:38 PM 37.2794 -117.9183 280° West 375 432 36,000  Level Oakland Center
Sat 03:08:39 PM 37.2947 -118.0450 279° West 369 425 36,000  Level Oakland Center
Sat 03:09:40 PM 37.3114 -118.1731 279° West 370 426 36,000  Level Oakland Center
Sat 03:10:42 PM 37.3272 -118.3036 279° West 377 434 36,000  Level Oakland Center
Sat 03:11:43 PM 37.3431 -118.4319 279° West 373 429 36,000  Level Oakland Center
Sat 03:12:44 PM 37.3583 -118.5608 279° West 373 429 36,000  Level Oakland Center
Sat 03:13:46 PM 37.3742 -118.6900 279° West 375 432 36,000  Level Oakland Center
Sat 03:14:47 PM 37.3914 -118.8333 279° West 378 435 36,000  Level Oakland Center
Sat 03:15:48 PM 37.4072 -118.9631 279° West 376 433 36,000  Level Oakland Center
Sat 03:16:49 PM 37.4225 -119.0933 278° West 377 434 36,000  Level Oakland Center
Sat 03:17:51 PM 37.4408 -119.2311 280° West 400 460 36,000  Level Oakland Center
Sat 03:18:52 PM 37.4589 -119.3867 278° West 379 436 36,000 -148 Level Oakland Center
Sat 03:19:53 PM 37.4717 -119.5181 277° West 379 436 35,700 -689 Descending Oakland Center
Sat 03:20:54 PM 37.4867 -119.6533 278° West 387 445 34,600 -1,024 Descending Oakland Center
Sat 03:21:56 PM 37.5017 -119.7861 278° West 378 435 33,600 -976 Descending Oakland Center
Sat 03:22:57 PM 37.5144 -119.9144 277° West 370 426 32,600 -1,082 Descending Oakland Center
Sat 03:23:58 PM 37.5297 -120.0508 278° West 393 452 31,400 -1,475 Descending Oakland Center
Sat 03:24:59 PM 37.5467 -120.1828 279° West 378 435 29,600 -1,756 Descending Oakland Center
Sat 03:26:01 PM 37.5614 -120.3242 278° West 399 459 27,800 -1,963 Descending Oakland Center
Sat 03:26:46 PM 37.5667 -120.4500 273° West 408 470 26,100 -2,000 Descending Northern TRACON
Sat 03:27:46 PM 37.5833 -120.5833 279° West 414 476 24,300 -2,150 Descending Northern TRACON
Sat 03:28:46 PM 37.6000 -120.7167 279° West 390 449 21,800 -2,400 Descending Northern TRACON
Sat 03:29:46 PM 37.6167 -120.8667 278° West 385 443 19,500 -2,000 Descending Northern TRACON
Sat 03:30:46 PM 37.6167 -120.9833 270° West 379 436 17,800 -1,900 Descending Northern TRACON
Sat 03:31:46 PM 37.6167 -121.1167 270° West 385 443 15,700 -1,983 Descending Northern TRACON
Sat 03:32:47 PM 37.6000 -121.2500 261° West 369 425 13,800 -1,934 Descending Northern TRACON
Sat 03:33:47 PM 37.5833 -121.3667 260° West 360 414 11,800 -1,400 Descending Northern TRACON
Sat 03:34:47 PM 37.5667 -121.4833 260° West 302 348 11,000 -400 Descending Northern TRACON
Sat 03:35:47 PM 37.5500 -121.5833 258° West 288 331 11,000 -200 Level Northern TRACON
Sat 03:36:47 PM 37.5333 -121.6667 256° West 263 303 10,600 -900 Descending Northern TRACON
Sat 03:37:47 PM 37.5167 -121.7500 256° West 258 297 9,200 -1,300 Descending Northern TRACON
Sat 03:38:47 PM 37.5000 -121.8333 256° West 253 291 8,000 -600 Descending Northern TRACON
Sat 03:39:47 PM 37.4833 -121.9167 256° West 232 267 8,000 -800 Level Northern TRACON
Sat 03:40:47 PM 37.5000 -122.0000 284° West 230 265 6,400 -1,250 Descending Northern TRACON
Sat 03:41:47 PM 37.5167 -122.0667 288° West 202 232 5,500 -1,200 Descending Northern TRACON
Sat 03:42:47 PM 37.5333 -122.1333 288° West 201 231 4,000 -1,200 Descending Northern TRACON
Sat 03:43:22 PM 37.5497 -122.1614 306° West 198 228 3,600 -866 Descending Oakland Center
Sat 03:44:24 PM 37.5678 -122.2181 292° West 186 214 2,600 -968 Descending Oakland Center

Login

Don't have an account? Register now (free) for customized features, flight alerts, and more!